Time;durP1;ratioP1;P1;durP2;ratioP2;P2;SDS_P1;SDS_P2;PMS_P1;PMS_P2;Temp;Humidity;BMP_temperature;BMP_pressure;BME280_temperature;BME280_humidity;BME280_pressure;Samples;Min_cycle;Max_cycle;Signal;HPM_P1;HPM_P2
2021/10/03 00:00:10;;;;;;;3.80;2.87;;;17.60;99.90;;;;;;4998433;28;20407;-73
2021/10/03 00:02:42;;;;;;;4.20;3.50;;;17.60;99.90;;;;;;4998291;28;20423;-73
2021/10/03 00:05:11;;;;;;;3.10;2.90;;;17.60;99.90;;;;;;4989542;28;20481;-73
2021/10/03 00:07:40;;;;;;;3.63;3.20;;;17.60;99.90;;;;;;4976686;28;20443;-72
2021/10/03 00:10:06;;;;;;;3.53;3.03;;;17.70;99.90;;;;;;4978199;28;20419;-73
2021/10/03 00:12:32;;;;;;;3.27;2.97;;;17.70;99.90;;;;;;4977589;28;20932;-73
2021/10/03 00:14:58;;;;;;;3.30;3.00;;;17.70;99.90;;;;;;4977906;28;20526;-73
2021/10/03 00:17:24;;;;;;;3.73;3.07;;;17.60;99.90;;;;;;4995482;28;20561;-73
2021/10/03 00:19:49;;;;;;;3.20;2.87;;;17.60;99.90;;;;;;4996776;28;20175;-73
2021/10/03 00:22:15;;;;;;;4.50;3.13;;;17.60;99.90;;;;;;4997355;28;20176;-73
2021/10/03 00:24:40;;;;;;;6.70;3.80;;;17.60;99.90;;;;;;4997359;28;20238;-73
2021/10/03 00:27:06;;;;;;;3.73;3.37;;;17.60;99.90;;;;;;4995403;28;20229;-73
2021/10/03 00:29:34;;;;;;;3.70;3.40;;;17.60;99.90;;;;;;4997268;28;20204;-73
2021/10/03 00:32:01;;;;;;;3.57;3.27;;;17.50;99.90;;;;;;4997240;28;20278;-73
2021/10/03 00:34:27;;;;;;;4.80;3.87;;;17.50;99.90;;;;;;4997636;28;20426;-73
2021/10/03 00:36:53;;;;;;;3.73;3.43;;;17.50;99.90;;;;;;4996776;28;20419;-73
2021/10/03 00:39:18;;;;;;;4.33;3.40;;;17.50;99.90;;;;;;5002456;28;20196;-73
2021/10/03 00:41:44;;;;;;;3.70;3.40;;;17.50;99.90;;;;;;4997126;28;20180;-73
2021/10/03 00:44:10;;;;;;;4.10;3.70;;;17.40;99.90;;;;;;4997417;28;20191;-73
2021/10/03 00:46:35;;;;;;;4.00;3.60;;;17.40;99.90;;;;;;4997080;28;20184;-73
2021/10/03 00:49:01;;;;;;;4.20;3.80;;;17.40;99.90;;;;;;4996814;28;20211;-73
2021/10/03 00:51:26;;;;;;;4.37;3.93;;;17.30;99.90;;;;;;4996100;28;20323;-73
2021/10/03 00:53:52;;;;;;;3.80;3.50;;;17.40;99.90;;;;;;4997141;28;20275;-73
2021/10/03 00:56:18;;;;;;;4.20;3.80;;;17.30;99.90;;;;;;4997198;28;20172;-73
2021/10/03 00:58:44;;;;;;;4.40;3.80;;;17.30;99.90;;;;;;4997384;28;20338;-72
2021/10/03 01:01:11;;;;;;;5.23;3.70;;;17.20;99.90;;;;;;4997255;28;20188;-73
2021/10/03 01:03:37;;;;;;;4.50;3.80;;;17.20;99.90;;;;;;4998836;28;20430;-74
2021/10/03 01:06:06;;;;;;;5.70;3.40;;;17.20;99.90;;;;;;4997762;28;20415;-73
2021/10/03 01:08:32;;;;;;;4.97;3.60;;;17.10;99.90;;;;;;4997171;28;20458;-73
2021/10/03 01:10:57;;;;;;;3.43;3.23;;;17.10;99.90;;;;;;5008332;28;20542;-74
2021/10/03 01:13:24;;;;;;;4.17;3.80;;;17.10;99.90;;;;;;5017724;28;20430;-73
2021/10/03 01:15:52;;;;;;;4.23;3.60;;;17.10;99.90;;;;;;5000365;28;20176;-74
2021/10/03 01:18:19;;;;;;;5.13;3.27;;;17.10;99.90;;;;;;5014814;28;20446;-73
2021/10/03 01:20:44;;;;;;;3.67;3.37;;;17.10;99.90;;;;;;5019116;28;20409;-73
2021/10/03 01:23:11;;;;;;;4.17;3.47;;;17.10;99.90;;;;;;5005922;28;20460;-73
2021/10/03 01:25:43;;;;;;;3.40;3.10;;;17.10;99.90;;;;;;4989631;28;20435;-72
2021/10/03 01:28:09;;;;;;;3.97;3.57;;;17.10;99.90;;;;;;4984323;28;20470;-72
2021/10/03 01:30:37;;;;;;;4.60;3.20;;;17.10;99.90;;;;;;4981254;28;20502;-73
2021/10/03 01:33:04;;;;;;;4.37;3.27;;;17.10;99.90;;;;;;4976549;28;20425;-73
2021/10/03 01:35:30;;;;;;;3.93;3.20;;;17.10;99.90;;;;;;4982382;28;20773;-73
2021/10/03 01:37:56;;;;;;;3.23;2.93;;;17.10;99.90;;;;;;4995575;28;20438;-73
2021/10/03 01:40:23;;;;;;;3.30;3.00;;;17.10;99.90;;;;;;4995798;28;20415;-73
2021/10/03 01:42:52;;;;;;;5.37;3.27;;;17.10;99.90;;;;;;4995543;28;20168;-73
2021/10/03 01:45:20;;;;;;;3.40;2.90;;;17.10;99.90;;;;;;4995718;28;20412;-73
2021/10/03 01:48:05;;;;;;;3.20;2.90;;;17.10;99.90;;;;;;4995172;28;20534;-73
2021/10/03 01:50:37;;;;;;;4.30;2.67;;;17.20;99.90;;;;;;4995324;28;20482;-73
2021/10/03 01:53:05;;;;;;;3.37;3.00;;;17.20;99.90;;;;;;4988233;28;20881;-73
2021/10/03 01:55:31;;;;;;;3.73;2.90;;;17.20;99.90;;;;;;4977592;28;20460;-73
2021/10/03 01:57:56;;;;;;;2.70;2.50;;;17.20;99.90;;;;;;4990487;28;20450;-73
2021/10/03 02:00:22;;;;;;;2.83;2.63;;;17.20;99.90;;;;;;4984513;28;20591;-73
2021/10/03 02:02:58;;;;;;;4.40;2.97;;;17.20;99.90;;;;;;4987690;28;20195;-73
2021/10/03 02:05:23;;;;;;;2.60;2.40;;;17.30;99.90;;;;;;4984594;28;20180;-74
2021/10/03 02:07:49;;;;;;;4.20;2.60;;;17.30;99.90;;;;;;4993693;28;21011;-73
2021/10/03 02:10:15;;;;;;;2.87;2.67;;;17.30;99.90;;;;;;4982792;28;20652;-73
2021/10/03 02:12:40;;;;;;;3.17;2.87;;;17.30;99.90;;;;;;4985974;28;20201;-73
2021/10/03 02:15:06;;;;;;;3.33;3.03;;;17.30;99.90;;;;;;4983712;28;20187;-73
2021/10/03 02:17:32;;;;;;;4.33;2.97;;;17.30;99.90;;;;;;4978757;28;20205;-73
2021/10/03 02:19:58;;;;;;;3.07;2.57;;;17.30;99.90;;;;;;4992867;28;20474;-73
2021/10/03 02:22:25;;;;;;;4.73;2.57;;;17.30;99.90;;;;;;4984957;28;20206;-73
2021/10/03 02:24:55;;;;;;;2.60;2.40;;;17.30;99.90;;;;;;4985290;28;20470;-73
2021/10/03 02:27:20;;;;;;;4.03;2.80;;;17.30;99.90;;;;;;4981779;28;20771;-73
2021/10/03 02:29:46;;;;;;;3.00;2.70;;;17.30;99.90;;;;;;4985593;28;20419;-73
2021/10/03 02:32:11;;;;;;;4.30;2.93;;;17.30;99.90;;;;;;4984019;28;20212;-73
2021/10/03 02:34:37;;;;;;;3.47;2.50;;;17.30;99.90;;;;;;4980607;28;20184;-73
2021/10/03 02:37:03;;;;;;;4.53;2.57;;;17.30;99.90;;;;;;4974489;28;20193;-73
2021/10/03 02:39:28;;;;;;;2.60;2.40;;;17.30;99.90;;;;;;4981336;28;20255;-73
2021/10/03 02:41:54;;;;;;;3.37;3.07;;;17.30;99.90;;;;;;4994858;28;20191;-73
2021/10/03 02:44:19;;;;;;;2.97;2.40;;;17.30;99.90;;;;;;4994019;28;20207;-73
2021/10/03 02:46:45;;;;;;;4.73;3.30;;;17.30;99.90;;;;;;4994601;28;20180;-73
2021/10/03 02:49:10;;;;;;;4.87;2.87;;;17.30;99.90;;;;;;4993436;28;20216;-73
2021/10/03 02:51:36;;;;;;;4.00;3.20;;;17.30;99.90;;;;;;4994253;28;20203;-73
2021/10/03 02:54:02;;;;;;;3.33;2.80;;;17.30;99.90;;;;;;4994369;28;20255;-73
2021/10/03 02:56:29;;;;;;;3.47;2.40;;;17.30;99.90;;;;;;4996242;28;20179;-73
2021/10/03 02:58:55;;;;;;;3.73;3.43;;;17.30;99.90;;;;;;4999897;28;20240;-73
2021/10/03 03:01:21;;;;;;;2.83;2.63;;;17.30;99.90;;;;;;4999805;28;20430;-73
2021/10/03 03:03:47;;;;;;;5.00;3.50;;;17.20;99.90;;;;;;4999951;28;20172;-73
2021/10/03 03:06:13;;;;;;;3.33;3.03;;;17.20;99.90;;;;;;4998061;28;20522;-73
2021/10/03 03:08:39;;;;;;;4.37;2.80;;;17.20;99.90;;;;;;4994324;28;20223;-74
2021/10/03 03:11:05;;;;;;;4.90;3.53;;;17.20;99.90;;;;;;4995770;28;20514;-73
2021/10/03 03:13:32;;;;;;;6.33;3.20;;;17.20;99.90;;;;;;4999013;28;20431;-73
2021/10/03 03:15:58;;;;;;;3.03;2.73;;;17.30;99.90;;;;;;4999787;28;20412;-73
2021/10/03 03:18:24;;;;;;;4.30;3.30;;;17.20;99.90;;;;;;4996773;28;20762;-73
2021/10/03 03:20:50;;;;;;;5.90;3.50;;;17.30;99.90;;;;;;4994532;28;20436;-73
2021/10/03 03:23:16;;;;;;;5.20;3.83;;;17.30;99.90;;;;;;4994143;28;20904;-73
2021/10/03 03:25:42;;;;;;;4.07;3.67;;;17.30;99.90;;;;;;4999157;28;20427;-74
2021/10/03 03:28:08;;;;;;;4.20;3.30;;;17.30;99.90;;;;;;4994280;28;20203;-73
2021/10/03 03:30:35;;;;;;;3.80;3.40;;;17.40;99.90;;;;;;4994064;28;20529;-73
2021/10/03 03:33:02;;;;;;;4.67;3.30;;;17.40;99.90;;;;;;4992706;28;20419;-73
2021/10/03 03:35:27;;;;;;;3.87;3.47;;;17.40;99.90;;;;;;4994434;28;20418;-73
2021/10/03 03:37:53;;;;;;;3.73;3.27;;;17.40;99.90;;;;;;4993385;28;20435;-73
2021/10/03 03:40:19;;;;;;;4.10;2.97;;;17.40;99.90;;;;;;4994464;28;20173;-73
2021/10/03 03:42:46;;;;;;;4.07;3.20;;;17.40;99.90;;;;;;4994214;28;20172;-73
2021/10/03 03:45:12;;;;;;;6.23;3.40;;;17.40;99.90;;;;;;4995188;28;20779;-72
2021/10/03 03:47:38;;;;;;;5.07;4.23;;;17.40;99.90;;;;;;4998707;28;20439;-72
2021/10/03 03:50:06;;;;;;;4.13;3.83;;;17.30;99.90;;;;;;4998369;28;20283;-72
2021/10/03 03:52:32;;;;;;;4.73;3.80;;;17.30;99.90;;;;;;4996822;28;20825;-72
2021/10/03 03:54:57;;;;;;;7.30;4.20;;;17.30;99.90;;;;;;4998976;28;20431;-72
2021/10/03 03:57:23;;;;;;;4.10;3.80;;;17.30;99.90;;;;;;4997034;28;20196;-72
2021/10/03 03:59:48;;;;;;;4.93;4.43;;;17.30;99.90;;;;;;4996370;28;20180;-72
2021/10/03 04:02:15;;;;;;;6.43;4.40;;;17.30;99.90;;;;;;4997775;28;20192;-73
2021/10/03 04:04:41;;;;;;;4.95;4.30;;;17.30;99.90;;;;;;4996862;28;20500;-72
2021/10/03 04:07:07;;;;;;;5.03;4.20;;;17.30;99.90;;;;;;4997431;28;20240;-73
2021/10/03 04:09:32;;;;;;;5.10;4.60;;;17.30;99.90;;;;;;4997589;28;20407;-73
2021/10/03 04:11:58;;;;;;;5.20;4.60;;;17.30;99.90;;;;;;4997700;28;20199;-72
2021/10/03 04:14:24;;;;;;;7.17;4.60;;;17.30;99.90;;;;;;4997137;28;20192;-73
2021/10/03 04:16:49;;;;;;;5.70;4.70;;;17.20;99.90;;;;;;4995976;28;20427;-72
2021/10/03 04:19:15;;;;;;;5.67;5.03;;;17.20;99.90;;;;;;4988947;28;20197;-73
2021/10/03 04:21:40;;;;;;;5.23;4.73;;;17.20;99.90;;;;;;4978391;28;20177;-72
2021/10/03 04:24:06;;;;;;;9.23;5.03;;;17.30;99.90;;;;;;4979348;28;20219;-72
2021/10/03 04:26:31;;;;;;;5.07;4.57;;;17.20;99.90;;;;;;4985352;28;20246;-74
2021/10/03 04:28:57;;;;;;;5.20;4.70;;;17.30;99.90;;;;;;4998897;28;20691;-73
2021/10/03 04:31:23;;;;;;;5.77;5.17;;;17.30;99.90;;;;;;5006714;28;20188;-73
2021/10/03 04:33:48;;;;;;;6.03;5.07;;;17.30;99.90;;;;;;5018748;28;20457;-72
2021/10/03 04:36:14;;;;;;;5.67;5.10;;;17.30;99.90;;;;;;5003672;28;20537;-72
2021/10/03 04:38:40;;;;;;;6.00;5.40;;;17.30;99.90;;;;;;5012444;28;20204;-72
2021/10/03 04:41:06;;;;;;;6.00;5.33;;;17.30;99.90;;;;;;5019852;28;20184;-73
2021/10/03 04:43:32;;;;;;;6.20;4.40;;;17.30;99.90;;;;;;5010103;28;20553;-72
2021/10/03 04:45:58;;;;;;;6.43;5.83;;;17.30;99.90;;;;;;5002473;28;20426;-73
2021/10/03 04:48:23;;;;;;;6.13;5.13;;;17.30;99.90;;;;;;4996628;28;20679;-72
2021/10/03 04:50:49;;;;;;;8.73;6.23;;;17.20;99.90;;;;;;4996477;28;20227;-72
2021/10/03 04:53:15;;;;;;;6.67;5.70;;;17.30;99.90;;;;;;4996495;28;20494;-72
2021/10/03 04:55:41;;;;;;;6.10;4.73;;;17.20;99.90;;;;;;4996038;28;20172;-72
2021/10/03 04:58:06;;;;;;;8.50;6.20;;;17.20;99.90;;;;;;4996257;28;20446;-72
2021/10/03 05:00:32;;;;;;;5.63;5.00;;;17.20;99.90;;;;;;4996763;28;20656;-73
2021/10/03 05:02:57;;;;;;;7.60;5.10;;;17.20;99.90;;;;;;4996217;28;20656;-73
2021/10/03 05:05:23;;;;;;;6.43;5.40;;;17.20;99.90;;;;;;4996419;28;20180;-72
2021/10/03 05:07:49;;;;;;;8.70;4.70;;;17.30;99.90;;;;;;4996023;28;20275;-73
2021/10/03 05:10:15;;;;;;;11.43;6.00;;;17.30;99.90;;;;;;4996691;28;20160;-73
2021/10/03 05:12:40;;;;;;;5.90;5.40;;;17.30;99.90;;;;;;4996389;28;20419;-73
2021/10/03 05:15:06;;;;;;;6.83;6.17;;;17.30;99.90;;;;;;4996166;28;20539;-73
2021/10/03 05:17:32;;;;;;;7.03;6.33;;;17.40;99.90;;;;;;4995738;28;20472;-73
2021/10/03 05:19:57;;;;;;;6.00;5.40;;;17.40;99.90;;;;;;4998019;28;20173;-72
2021/10/03 05:22:24;;;;;;;6.10;5.50;;;17.40;99.90;;;;;;4996819;28;20187;-73
2021/10/03 05:24:51;;;;;;;6.00;5.40;;;17.40;99.90;;;;;;4995389;28;20179;-73
2021/10/03 05:27:17;;;;;;;6.27;5.67;;;17.40;99.90;;;;;;4995691;28;20465;-73
2021/10/03 05:29:42;;;;;;;7.23;5.47;;;17.40;99.90;;;;;;4996003;28;20486;-72
2021/10/03 05:32:08;;;;;;;6.60;5.60;;;17.40;99.90;;;;;;4996276;28;20484;-73
2021/10/03 05:34:33;;;;;;;6.87;6.17;;;17.30;99.90;;;;;;4996170;28;20183;-73
2021/10/03 05:36:59;;;;;;;8.50;6.40;;;17.30;99.90;;;;;;4995374;28;20172;-73
2021/10/03 05:39:25;;;;;;;8.30;6.07;;;17.30;99.90;;;;;;4996124;28;20268;-74
2021/10/03 05:41:50;;;;;;;6.60;5.90;;;17.30;99.90;;;;;;4995973;28;20307;-73
2021/10/03 05:44:16;;;;;;;6.00;5.50;;;17.30;99.90;;;;;;4998177;28;20278;-73
2021/10/03 05:46:41;;;;;;;11.97;6.10;;;17.30;99.90;;;;;;4995388;28;20200;-74
2021/10/03 05:49:07;;;;;;;6.40;5.40;;;17.30;99.90;;;;;;4995368;28;20225;-74
2021/10/03 05:51:35;;;;;;;10.40;6.40;;;17.20;99.90;;;;;;4995978;28;20219;-73
2021/10/03 05:54:01;;;;;;;8.13;6.70;;;17.20;99.90;;;;;;4995673;28;20634;-74
2021/10/03 05:56:26;;;;;;;6.73;5.83;;;17.20;99.90;;;;;;4995057;28;20503;-73
2021/10/03 05:58:52;;;;;;;7.07;5.93;;;17.20;99.90;;;;;;4995664;28;20607;-72
2021/10/03 06:01:17;;;;;;;7.00;6.23;;;17.20;99.90;;;;;;4995553;28;20184;-72
2021/10/03 06:03:43;;;;;;;8.80;6.23;;;17.20;99.90;;;;;;4995533;28;20208;-73
2021/10/03 06:06:08;;;;;;;7.47;5.73;;;17.20;99.90;;;;;;4995327;28;20182;-73
2021/10/03 06:08:34;;;;;;;6.67;5.60;;;17.20;99.90;;;;;;4994996;28;20208;-74
2021/10/03 06:10:59;;;;;;;7.17;5.97;;;17.20;99.90;;;;;;4993589;28;20646;-74
2021/10/03 06:13:25;;;;;;;6.90;6.17;;;17.20;99.90;;;;;;4995673;28;20250;-72
2021/10/03 06:15:54;;;;;;;7.47;6.60;;;17.20;99.90;;;;;;4994929;28;20176;-73
2021/10/03 06:18:20;;;;;;;8.17;5.73;;;17.20;99.90;;;;;;4993901;28;20220;-72
2021/10/03 06:20:46;;;;;;;6.17;5.57;;;17.20;99.90;;;;;;4986256;28;20476;-72
2021/10/03 06:23:13;;;;;;;8.77;6.80;;;17.30;99.90;;;;;;4988851;28;20190;-73
2021/10/03 06:25:38;;;;;;;7.17;5.90;;;17.30;99.90;;;;;;4995065;28;20408;-72
2021/10/03 06:28:04;;;;;;;6.43;5.83;;;17.30;99.90;;;;;;4994573;28;20431;-74
2021/10/03 06:30:30;;;;;;;6.83;5.50;;;17.30;99.90;;;;;;4995256;28;20196;-72
2021/10/03 06:32:57;;;;;;;7.30;5.77;;;17.40;99.90;;;;;;4994744;28;20168;-72
2021/10/03 06:35:23;;;;;;;6.00;5.50;;;17.40;99.90;;;;;;4993774;28;20199;-74
2021/10/03 06:37:49;;;;;;;6.07;5.47;;;17.40;99.90;;;;;;4994663;28;20419;-72
2021/10/03 06:40:15;;;;;;;7.33;6.00;;;17.40;99.90;;;;;;4994979;28;20226;-73
2021/10/03 06:42:41;;;;;;;7.43;6.00;;;17.40;99.90;;;;;;4993483;28;20204;-73
2021/10/03 06:45:09;;;;;;;8.10;6.20;;;17.40;99.90;;;;;;4992331;28;20590;-74
2021/10/03 06:47:35;;;;;;;6.80;6.10;;;17.40;99.90;;;;;;4979505;28;20778;-73
2021/10/03 06:50:02;;;;;;;8.10;6.10;;;17.40;99.90;;;;;;4978030;28;20504;-73
2021/10/03 06:52:27;;;;;;;6.40;5.80;;;17.50;99.90;;;;;;4988172;28;20223;-73
2021/10/03 06:54:53;;;;;;;6.80;6.10;;;17.50;99.90;;;;;;4987770;28;20483;-74
2021/10/03 06:57:18;;;;;;;6.07;5.47;;;17.50;99.90;;;;;;4986455;28;20200;-73
2021/10/03 06:59:44;;;;;;;8.47;6.00;;;17.50;99.90;;;;;;4981484;28;20223;-72
2021/10/03 07:02:25;;;;;;;7.00;6.30;;;17.50;99.90;;;;;;4983581;28;20177;-71
2021/10/03 07:04:53;;;;;;;6.50;5.60;;;17.50;99.90;;;;;;4983173;28;20232;-72
2021/10/03 07:07:19;;;;;;;7.03;6.00;;;17.50;99.90;;;;;;4988408;28;20521;-73
2021/10/03 07:09:44;;;;;;;6.90;6.20;;;17.50;99.90;;;;;;4982359;28;20749;-71
2021/10/03 07:12:10;;;;;;;7.40;5.83;;;17.50;99.90;;;;;;4994879;28;20455;-72
2021/10/03 07:14:36;;;;;;;7.17;5.77;;;17.50;99.90;;;;;;4980991;28;20488;-73
2021/10/03 07:17:01;;;;;;;7.93;6.13;;;17.50;99.90;;;;;;4986214;28;20208;-74
2021/10/03 07:19:27;;;;;;;7.57;6.70;;;17.50;99.90;;;;;;4992566;28;20306;-73
2021/10/03 07:21:53;;;;;;;7.30;6.47;;;17.50;99.90;;;;;;4991081;28;20428;-73
2021/10/03 07:24:18;;;;;;;6.30;5.70;;;17.60;99.90;;;;;;4992269;28;20220;-74
2021/10/03 07:26:44;;;;;;;8.50;6.90;;;17.60;99.90;;;;;;4991621;28;20421;-72
2021/10/03 07:29:09;;;;;;;8.53;6.00;;;17.60;99.90;;;;;;4993945;28;20457;-73
2021/10/03 07:31:35;;;;;;;7.27;5.90;;;17.70;99.90;;;;;;4996302;28;20704;-73
2021/10/03 07:34:01;;;;;;;6.00;5.50;;;17.70;99.90;;;;;;4996283;28;20196;-74
2021/10/03 07:36:26;;;;;;;6.40;5.80;;;17.70;99.90;;;;;;4996662;28;20216;-73
2021/10/03 07:38:52;;;;;;;7.03;5.40;;;17.70;99.90;;;;;;4996827;28;20278;-75
2021/10/03 07:41:20;;;;;;;6.80;6.17;;;17.60;99.90;;;;;;5000374;28;20204;-74
2021/10/03 07:43:47;;;;;;;7.00;6.07;;;17.60;99.90;;;;;;5000806;28;20283;-74
2021/10/03 07:46:12;;;;;;;9.20;6.80;;;17.60;99.90;;;;;;5003444;28;20463;-74
2021/10/03 07:48:38;;;;;;;6.93;6.23;;;17.60;99.90;;;;;;5008525;28;20459;-73
2021/10/03 07:51:04;;;;;;;8.40;7.30;;;17.50;99.90;;;;;;5012888;28;20482;-73
2021/10/03 07:53:30;;;;;;;7.40;5.57;;;17.50;99.90;;;;;;5008512;28;20213;-74
2021/10/03 07:55:56;;;;;;;6.80;6.20;;;17.50;99.90;;;;;;5005246;28;20208;-74
2021/10/03 07:58:22;;;;;;;6.00;5.47;;;17.50;99.90;;;;;;5012229;28;20843;-74
2021/10/03 08:00:47;;;;;;;6.90;6.13;;;17.50;99.90;;;;;;5010825;28;20479;-72
2021/10/03 08:03:13;;;;;;;7.93;5.40;;;17.50;99.90;;;;;;5001635;28;20323;-74
2021/10/03 08:05:39;;;;;;;6.90;6.23;;;17.50;99.90;;;;;;4984060;28;20215;-72
2021/10/03 08:08:05;;;;;;;8.00;6.17;;;17.50;99.90;;;;;;4982989;28;20235;-73
2021/10/03 08:10:31;;;;;;;7.50;6.80;;;17.50;99.90;;;;;;4993039;28;20322;-74
2021/10/03 08:12:57;;;;;;;6.47;5.60;;;17.50;99.90;;;;;;4991815;28;20438;-72
2021/10/03 08:15:27;;;;;;;7.95;6.35;;;17.50;99.90;;;;;;4991343;28;20487;-73
2021/10/03 08:17:53;;;;;;;7.30;6.60;;;17.50;99.90;;;;;;4992338;28;20207;-72
2021/10/03 08:20:19;;;;;;;7.63;5.83;;;17.40;99.90;;;;;;4989338;28;20478;-72
2021/10/03 08:22:44;;;;;;;6.93;6.30;;;17.40;99.90;;;;;;4990131;28;20453;-72
2021/10/03 08:25:10;;;;;;;7.20;5.70;;;17.40;99.90;;;;;;4993929;28;20447;-73
2021/10/03 08:27:37;;;;;;;6.93;6.23;;;17.40;99.90;;;;;;4993925;28;20208;-74
2021/10/03 08:30:05;;;;;;;6.37;5.70;;;17.40;99.90;;;;;;4995898;28;20214;-74
2021/10/03 08:32:31;;;;;;;6.50;5.90;;;17.40;99.90;;;;;;4997120;28;20622;-73
2021/10/03 08:34:56;;;;;;;6.40;5.80;;;17.40;99.90;;;;;;4998030;28;20443;-73
2021/10/03 08:37:22;;;;;;;7.00;6.27;;;17.40;99.90;;;;;;4997488;28;20669;-73
2021/10/03 08:39:49;;;;;;;6.43;5.83;;;17.40;99.90;;;;;;4981955;28;20196;-73
2021/10/03 08:42:14;;;;;;;6.97;6.30;;;17.30;99.90;;;;;;4980592;28;20427;-75
2021/10/03 08:44:41;;;;;;;6.93;6.23;;;17.30;99.90;;;;;;4997582;28;20438;-72
2021/10/03 08:47:07;;;;;;;6.87;6.17;;;17.30;99.90;;;;;;4998445;28;20175;-76
2021/10/03 08:49:32;;;;;;;6.90;5.60;;;17.30;99.90;;;;;;4999510;28;20443;-73
2021/10/03 08:51:58;;;;;;;6.97;5.70;;;17.30;99.90;;;;;;5002788;28;20200;-74
2021/10/03 08:54:24;;;;;;;6.43;5.83;;;17.30;99.90;;;;;;4997121;28;20176;-74
2021/10/03 08:56:49;;;;;;;7.60;6.80;;;17.30;99.90;;;;;;4997178;28;20427;-74
2021/10/03 08:59:15;;;;;;;9.03;6.20;;;17.30;99.90;;;;;;4997139;28;20199;-72
2021/10/03 09:01:52;;;;;;;6.87;5.43;;;17.30;99.90;;;;;;5003991;28;20231;-73
2021/10/03 09:04:28;;;;;;;7.07;6.00;;;17.30;99.90;;;;;;4995275;28;20652;-73
2021/10/03 09:07:12;;;;;;;8.23;6.00;;;17.40;99.90;;;;;;4994599;28;20442;-73
2021/10/03 09:09:49;;;;;;;8.10;6.50;;;17.40;99.90;;;;;;4996701;28;20458;-73
2021/10/03 09:12:23;;;;;;;6.03;5.43;;;17.40;99.90;;;;;;5001404;28;21045;-73
2021/10/03 09:14:49;;;;;;;7.40;5.97;;;17.40;99.90;;;;;;5003178;28;20431;-73
2021/10/03 09:17:17;;;;;;;6.23;5.50;;;17.40;99.90;;;;;;4998272;28;20481;-73
2021/10/03 09:20:06;;;;;;;6.37;5.77;;;17.40;99.90;;;;;;4996085;28;20647;-72
2021/10/03 09:22:35;;;;;;;6.53;5.93;;;17.40;99.90;;;;;;5006857;28;20407;-72
2021/10/03 09:25:00;;;;;;;6.57;5.97;;;17.40;99.90;;;;;;4993666;28;20427;-71
2021/10/03 09:27:46;;;;;;;6.80;5.70;;;17.40;99.90;;;;;;4994192;28;20443;-72
2021/10/03 09:30:11;;;;;;;7.90;7.10;;;17.40;99.90;;;;;;4994379;28;20315;-75
2021/10/03 09:32:37;;;;;;;7.90;7.03;;;17.40;99.90;;;;;;4992931;28;21043;-72
2021/10/03 09:35:03;;;;;;;6.57;5.97;;;17.40;99.90;;;;;;4993638;28;20311;-74
2021/10/03 09:37:32;;;;;;;5.83;5.27;;;17.40;99.90;;;;;;4993519;28;20243;-73
2021/10/03 09:40:07;;;;;;;8.00;6.47;;;17.50;99.90;;;;;;4993411;28;20188;-73
2021/10/03 09:42:34;;;;;;;12.17;6.27;;;17.50;99.90;;;;;;4993174;28;20411;-73
2021/10/03 09:45:12;;;;;;;6.77;5.73;;;17.40;99.90;;;;;;5004870;28;20771;-75
2021/10/03 09:47:39;;;;;;;5.80;5.20;;;17.50;99.90;;;;;;4997048;28;20438;-73
2021/10/03 09:50:07;;;;;;;6.23;5.50;;;17.60;99.90;;;;;;5009040;28;21039;-75
2021/10/03 09:52:33;;;;;;;6.90;5.50;;;17.60;99.90;;;;;;5000438;28;20462;-74
2021/10/03 09:55:03;;;;;;;9.10;5.90;;;17.60;99.90;;;;;;4994369;28;20458;-71
2021/10/03 09:57:28;;;;;;;6.03;5.43;;;17.60;99.90;;;;;;4978127;28;20436;-74
2021/10/03 09:59:54;;;;;;;6.60;5.63;;;17.60;99.90;;;;;;4992200;28;20423;-71
2021/10/03 10:02:20;;;;;;;5.87;5.23;;;17.60;99.90;;;;;;4992847;28;20176;-72
2021/10/03 10:04:47;;;;;;;6.57;5.97;;;17.70;99.90;;;;;;5002862;28;20962;-72
2021/10/03 10:07:13;;;;;;;5.73;5.13;;;17.70;99.90;;;;;;4999440;28;20243;-73
2021/10/03 10:09:39;;;;;;;5.73;5.23;;;17.70;99.90;;;;;;4992740;28;20510;-72
2021/10/03 10:12:13;;;;;;;5.63;5.13;;;17.70;99.90;;;;;;4992703;28;20455;-73
2021/10/03 10:14:43;;;;;;;6.63;5.57;;;17.70;99.90;;;;;;4993693;28;20414;-72
2021/10/03 10:17:35;;;;;;;5.90;5.40;;;17.70;99.90;;;;;;4993723;28;20419;-72
2021/10/03 10:20:13;;;;;;;6.20;5.70;;;17.70;99.90;;;;;;4986914;28;20447;-71
2021/10/03 10:22:41;;;;;;;6.70;5.63;;;17.70;99.90;;;;;;4986910;28;20943;-73
2021/10/03 10:25:17;;;;;;;5.60;5.00;;;17.70;99.90;;;;;;4987734;28;20420;-73
2021/10/03 10:27:45;;;;;;;6.20;5.37;;;17.70;99.90;;;;;;4985741;28;20949;-74
2021/10/03 10:30:15;;;;;;;6.90;4.60;;;17.70;99.90;;;;;;4992320;28;20426;-75
2021/10/03 10:32:56;;;;;;;6.93;5.97;;;17.70;99.90;;;;;;4993513;28;20470;-73
2021/10/03 10:35:26;;;;;;;6.53;5.93;;;17.80;99.90;;;;;;4982042;28;20436;-74
2021/10/03 10:37:53;;;;;;;5.73;5.20;;;17.80;99.90;;;;;;4992477;28;20479;-72
2021/10/03 10:40:21;;;;;;;6.20;5.63;;;17.80;99.90;;;;;;4995073;28;20454;-72
2021/10/03 10:43:02;;;;;;;5.83;5.30;;;17.80;99.90;;;;;;4996641;28;20940;-75
2021/10/03 10:45:27;;;;;;;6.37;5.77;;;17.80;99.90;;;;;;4995219;28;20629;-75
2021/10/03 10:48:09;;;;;;;7.67;5.50;;;17.80;99.90;;;;;;4992695;28;21292;-73
2021/10/03 10:50:35;;;;;;;5.77;5.27;;;17.80;99.90;;;;;;4981884;28;20279;-74
2021/10/03 10:53:22;;;;;;;7.90;5.67;;;17.80;99.90;;;;;;4996494;28;21141;-74
2021/10/03 10:56:08;;;;;;;6.00;5.40;;;17.80;99.90;;;;;;4995355;28;20521;-76
2021/10/03 10:58:39;;;;;;;6.17;5.57;;;17.90;99.90;;;;;;4997455;28;20435;-72
2021/10/03 11:01:11;;;;;;;6.10;5.30;;;17.80;99.90;;;;;;4995951;28;20461;-71
2021/10/03 11:03:54;;;;;;;6.23;5.63;;;17.90;99.90;;;;;;4997060;28;20578;-71
2021/10/03 11:06:20;;;;;;;9.20;6.60;;;17.90;99.90;;;;;;4987249;28;21067;-73
2021/10/03 11:09:00;;;;;;;5.77;5.27;;;17.90;99.90;;;;;;4998386;28;20478;-77
2021/10/03 11:11:28;;;;;;;6.67;5.70;;;17.90;99.90;;;;;;5026547;28;20462;-73
2021/10/03 11:14:01;;;;;;;6.27;5.67;;;17.90;99.90;;;;;;5001914;28;20526;-74
2021/10/03 11:16:37;;;;;;;5.23;4.73;;;17.90;99.90;;;;;;5011167;28;20451;-74
2021/10/03 11:19:14;;;;;;;7.23;6.00;;;18.00;99.90;;;;;;5002592;28;21277;-72
2021/10/03 11:21:46;;;;;;;6.03;4.83;;;18.00;99.90;;;;;;4997872;28;20462;-73
2021/10/03 11:24:18;;;;;;;6.50;5.37;;;18.00;99.90;;;;;;4985328;28;21087;-74
2021/10/03 11:26:58;;;;;;;5.80;5.30;;;18.10;99.90;;;;;;4983072;28;20479;-73
2021/10/03 11:29:44;;;;;;;6.03;5.43;;;18.10;99.90;;;;;;4990224;28;20530;-73
2021/10/03 11:32:21;;;;;;;6.63;5.63;;;18.10;99.90;;;;;;4989447;28;20494;-74
2021/10/03 11:34:50;;;;;;;6.28;5.68;;;18.10;99.90;;;;;;4989637;28;20495;-74
2021/10/03 11:37:25;;;;;;;6.47;5.60;;;18.10;99.90;;;;;;4987558;28;20251;-73
2021/10/03 11:39:58;;;;;;;7.57;5.67;;;18.10;99.90;;;;;;4992950;28;20500;-74
2021/10/03 11:42:26;;;;;;;5.83;5.23;;;18.10;99.90;;;;;;4989534;28;20490;-74
2021/10/03 11:45:11;;;;;;;6.40;5.57;;;18.10;99.90;;;;;;4986889;28;20447;-73
2021/10/03 11:47:45;;;;;;;6.07;5.43;;;18.10;99.90;;;;;;4988370;28;20467;-72
2021/10/03 11:50:37;;;;;;;6.77;6.10;;;18.20;99.90;;;;;;4974157;28;20501;-73
2021/10/03 11:53:20;;;;;;;6.10;5.50;;;18.20;99.90;;;;;;4995889;28;20471;-72
2021/10/03 11:55:48;;;;;;;6.43;5.83;;;18.10;99.90;;;;;;4988719;28;20443;-74
2021/10/03 11:58:16;;;;;;;8.00;5.90;;;18.10;99.90;;;;;;4988874;28;20458;-73
2021/10/03 12:00:52;;;;;;;6.07;5.07;;;18.20;99.90;;;;;;4987796;28;20653;-74
2021/10/03 12:03:18;;;;;;;5.23;4.80;;;18.20;99.90;;;;;;4988982;28;21153;-73
2021/10/03 12:05:44;;;;;;;8.53;5.60;;;18.10;99.90;;;;;;4989051;28;20439;-73
2021/10/03 12:08:15;;;;;;;5.50;5.00;;;18.10;99.90;;;;;;5003383;28;20468;-72
2021/10/03 12:10:45;;;;;;;4.93;4.53;;;18.10;99.90;;;;;;4988664;28;20208;-73
2021/10/03 12:13:27;;;;;;;5.40;4.90;;;18.20;99.90;;;;;;4988706;28;20464;-73
2021/10/03 12:16:06;;;;;;;6.43;5.50;;;18.10;99.90;;;;;;4989401;28;20522;-74
2021/10/03 12:18:59;;;;;;;6.20;5.60;;;18.10;99.90;;;;;;4997633;28;20458;-74
2021/10/03 12:21:24;;;;;;;6.53;5.73;;;18.10;99.90;;;;;;4989498;28;21049;-72
2021/10/03 12:23:53;;;;;;;7.70;5.50;;;18.10;99.90;;;;;;4979581;28;20462;-74
2021/10/03 12:26:27;;;;;;;13.40;6.50;;;18.10;99.90;;;;;;4986331;28;20594;-74
2021/10/03 12:29:05;;;;;;;6.17;5.57;;;18.20;99.90;;;;;;4982090;28;20468;-75
2021/10/03 12:31:53;;;;;;;6.30;5.13;;;18.20;99.90;;;;;;4995541;28;20470;-72
2021/10/03 12:34:22;;;;;;;5.67;5.17;;;18.30;99.90;;;;;;4981239;28;20450;-75
2021/10/03 12:36:53;;;;;;;6.00;4.77;;;18.30;99.90;;;;;;4992040;28;20432;-74
2021/10/03 12:39:31;;;;;;;6.33;5.77;;;18.30;99.90;;;;;;4993345;28;20494;-73
2021/10/03 12:42:02;;;;;;;5.30;4.90;;;18.30;99.90;;;;;;4993600;28;21014;-73
2021/10/03 12:44:31;;;;;;;5.73;5.23;;;18.20;99.90;;;;;;4993671;28;20443;-72
2021/10/03 12:46:57;;;;;;;5.73;5.23;;;18.20;99.90;;;;;;4995047;28;20458;-74
2021/10/03 12:49:23;;;;;;;5.60;5.00;;;18.20;99.90;;;;;;4994797;28;20493;-76